Time;durP1;ratioP1;P1;durP2;ratioP2;P2;SDS_P1;SDS_P2;PMS_P1;PMS_P2;Temp;Humidity;BMP_temperature;BMP_pressure;BME280_temperature;BME280_humidity;BME280_pressure;Samples;Min_cycle;Max_cycle;Signal;HPM_P1;HPM_P2
2021/10/06 00:00:02;;;;;;;;;;;15.40;68.40;;;;;;5048765;28;19912;-81
2021/10/06 00:02:28;;;;;;;;;;;15.40;68.10;;;;;;5048757;28;19913;-80
2021/10/06 00:04:53;;;;;;;;;;;15.40;68.00;;;;;;5048025;28;19916;-80
2021/10/06 00:07:19;;;;;;;;;;;15.40;68.10;;;;;;5049277;28;20381;-79
2021/10/06 00:09:44;;;;;;;;;;;15.50;68.30;;;;;;5064370;28;19964;-80
2021/10/06 00:12:10;;;;;;;;;;;15.50;68.10;;;;;;5048872;28;20526;-80
2021/10/06 00:14:35;;;;;;;;;;;15.50;68.10;;;;;;5047622;28;19915;-80
2021/10/06 00:17:01;;;;;;;;;;;15.50;67.60;;;;;;5048623;28;19939;-79
2021/10/06 00:19:26;;;;;;;;;;;15.50;67.80;;;;;;5048782;28;19909;-80
2021/10/06 00:21:52;;;;;;;;;;;15.50;67.90;;;;;;5064326;28;19904;-80
2021/10/06 00:24:18;;;;;;;;;;;15.40;67.90;;;;;;5064146;28;20444;-80
2021/10/06 00:26:43;;;;;;;;;;;15.50;68.00;;;;;;5063823;28;19904;-80
2021/10/06 00:29:09;;;;;;;;;;;15.50;68.20;;;;;;5046096;28;19966;-81
2021/10/06 00:31:34;;;;;;;;;;;15.50;68.50;;;;;;5048916;28;20423;-79
2021/10/06 00:34:00;;;;;;;;;;;15.40;68.60;;;;;;5048464;28;19908;-80
2021/10/06 00:36:25;;;;;;;;;;;15.40;68.80;;;;;;5048241;28;19959;-81
2021/10/06 00:38:51;;;;;;;;;;;15.30;68.90;;;;;;5047415;28;20297;-80
2021/10/06 00:41:16;;;;;;;;;;;15.40;69.00;;;;;;5047893;28;19962;-82
2021/10/06 00:43:42;;;;;;;;;;;15.30;69.20;;;;;;5046935;28;19912;-80
2021/10/06 00:46:07;;;;;;;;;;;15.30;69.20;;;;;;5063054;28;19966;-78
2021/10/06 00:48:33;;;;;;;;;;;15.30;69.10;;;;;;5064081;28;19970;-79
2021/10/06 00:50:58;;;;;;;;;;;15.30;69.30;;;;;;5047117;28;19919;-80
2021/10/06 00:53:25;;;;;;;;;;;15.20;69.70;;;;;;5048516;28;19915;-81
2021/10/06 00:55:51;;;;;;;;;;;15.20;70.70;;;;;;5047557;28;20039;-80
2021/10/06 00:58:16;;;;;;;;;;;15.20;70.20;;;;;;5046436;28;20027;-80
2021/10/06 01:00:42;;;;;;;;;;;15.10;69.50;;;;;;5048299;28;19909;-79
2021/10/06 01:03:07;;;;;;;;;;;15.10;69.70;;;;;;5048306;28;19916;-80
2021/10/06 01:05:33;;;;;;;;;;;15.10;70.20;;;;;;5048094;28;20526;-79
2021/10/06 01:07:59;;;;;;;;;;;15.00;70.30;;;;;;5047574;28;20009;-79
2021/10/06 01:10:25;;;;;;;;;;;14.90;70.30;;;;;;5047901;28;19932;-80
2021/10/06 01:12:51;;;;;;;;;;;14.90;70.40;;;;;;5047434;28;19917;-80
2021/10/06 01:15:17;;;;;;;;;;;14.90;70.70;;;;;;5047759;28;19962;-80
2021/10/06 01:17:42;;;;;;;;;;;14.80;70.90;;;;;;5062897;28;20375;-80
2021/10/06 01:20:09;;;;;;;;;;;14.80;71.10;;;;;;5047758;28;19912;-81
2021/10/06 01:22:34;;;;;;;;;;;14.80;71.50;;;;;;5046439;28;19986;-80
2021/10/06 01:25:01;;;;;;;;;;;14.80;71.20;;;;;;5047986;28;20585;-80
2021/10/06 01:27:27;;;;;;;;;;;14.70;71.60;;;;;;5062317;28;19932;-80
2021/10/06 01:29:53;;;;;;;;;;;14.70;71.80;;;;;;5047869;28;19916;-79
2021/10/06 01:32:18;;;;;;;;;;;14.70;71.40;;;;;;5047367;28;19909;-79
2021/10/06 01:34:54;;;;;;;;;;;14.90;70.70;;;;;;5049563;28;20003;-79
2021/10/06 01:37:20;;;;;;;;;;;14.80;71.00;;;;;;5047464;28;19959;-79
2021/10/06 01:39:45;;;;;;;;;;;14.90;70.00;;;;;;5047649;28;19936;-79
2021/10/06 01:42:11;;;;;;;;;;;14.90;70.30;;;;;;5062735;28;19916;-81
2021/10/06 01:44:37;;;;;;;;;;;14.90;70.30;;;;;;5047025;28;19996;-79
2021/10/06 01:47:02;;;;;;;;;;;14.80;70.30;;;;;;5047089;28;19967;-79
2021/10/06 01:49:28;;;;;;;;;;;14.80;70.70;;;;;;5047591;28;19924;-79
2021/10/06 01:51:53;;;;;;;;;;;14.80;70.80;;;;;;5046664;28;19913;-78
2021/10/06 01:54:19;;;;;;;;;;;14.80;70.80;;;;;;5047253;28;20321;-80
2021/10/06 01:56:44;;;;;;;;;;;14.80;70.80;;;;;;5046992;28;19916;-80
2021/10/06 01:59:10;;;;;;;;;;;14.80;70.60;;;;;;5046864;28;19905;-80
2021/10/06 02:01:35;;;;;;;;;;;14.70;70.90;;;;;;5062823;28;19909;-78
2021/10/06 02:04:01;;;;;;;;;;;14.70;70.90;;;;;;5047059;28;20436;-80
2021/10/06 02:06:26;;;;;;;;;;;14.70;71.00;;;;;;5045834;28;19908;-82
2021/10/06 02:08:52;;;;;;;;;;;14.60;71.20;;;;;;5047075;28;19970;-82
2021/10/06 02:11:17;;;;;;;;;;;14.60;71.50;;;;;;5062153;28;19962;-82
2021/10/06 02:13:43;;;;;;;;;;;14.60;71.50;;;;;;5046224;28;19909;-82
2021/10/06 02:16:08;;;;;;;;;;;14.50;71.80;;;;;;5046411;28;20397;-82
2021/10/06 02:18:34;;;;;;;;;;;14.50;71.90;;;;;;5047007;28;19904;-80
2021/10/06 02:21:00;;;;;;;;;;;14.50;71.90;;;;;;5062434;28;19909;-81
2021/10/06 02:23:25;;;;;;;;;;;14.50;71.90;;;;;;5046459;28;19912;-82
2021/10/06 02:25:51;;;;;;;;;;;14.40;72.20;;;;;;5045045;28;19947;-81
2021/10/06 02:28:16;;;;;;;;;;;14.40;72.30;;;;;;5046002;28;20654;-81
2021/10/06 02:30:42;;;;;;;;;;;14.40;72.30;;;;;;5046945;28;19915;-81
2021/10/06 02:33:07;;;;;;;;;;;14.40;72.50;;;;;;5045219;28;19955;-81
2021/10/06 02:35:33;;;;;;;;;;;14.40;72.50;;;;;;5046726;28;19916;-82
2021/10/06 02:37:58;;;;;;;;;;;14.40;72.40;;;;;;5044849;28;19908;-80
2021/10/06 02:40:24;;;;;;;;;;;14.40;72.70;;;;;;5046434;28;20002;-79
2021/10/06 02:42:50;;;;;;;;;;;14.40;72.90;;;;;;5045293;28;20377;-80
2021/10/06 02:45:16;;;;;;;;;;;14.40;72.90;;;;;;5061799;28;19915;-81
2021/10/06 02:47:42;;;;;;;;;;;14.40;72.80;;;;;;5046798;28;19933;-81
2021/10/06 02:50:09;;;;;;;;;;;14.40;72.90;;;;;;5046015;28;20405;-81
2021/10/06 02:52:35;;;;;;;;;;;14.40;72.60;;;;;;5048548;28;20393;-81
2021/10/06 02:55:01;;;;;;;;;;;14.40;72.80;;;;;;5050373;28;19935;-80
2021/10/06 02:57:26;;;;;;;;;;;14.40;72.30;;;;;;5050031;28;19920;-81
2021/10/06 02:59:52;;;;;;;;;;;14.30;72.80;;;;;;5048716;28;20300;-80
2021/10/06 03:02:18;;;;;;;;;;;14.30;72.70;;;;;;5065658;28;19919;-81
2021/10/06 03:04:43;;;;;;;;;;;14.30;72.70;;;;;;5050103;28;19908;-81
2021/10/06 03:07:09;;;;;;;;;;;14.30;73.00;;;;;;5050370;28;19909;-80
2021/10/06 03:09:34;;;;;;;;;;;14.30;73.10;;;;;;5048838;28;19948;-81
2021/10/06 03:12:00;;;;;;;;;;;14.30;73.20;;;;;;5050077;28;19909;-81
2021/10/06 03:14:25;;;;;;;;;;;14.40;72.40;;;;;;5049814;28;19908;-81
2021/10/06 03:16:51;;;;;;;;;;;14.30;72.60;;;;;;5065641;28;19966;-81
2021/10/06 03:19:16;;;;;;;;;;;14.40;72.40;;;;;;5049797;28;20219;-81
2021/10/06 03:21:42;;;;;;;;;;;14.30;72.70;;;;;;5049965;28;20405;-81
2021/10/06 03:24:07;;;;;;;;;;;14.30;72.90;;;;;;5048516;28;19941;-81
2021/10/06 03:26:33;;;;;;;;;;;14.30;72.80;;;;;;5049890;28;19912;-81
2021/10/06 03:28:59;;;;;;;;;;;14.20;73.30;;;;;;5049982;28;19912;-79
2021/10/06 03:31:24;;;;;;;;;;;14.30;73.20;;;;;;5064998;28;20278;-81
2021/10/06 03:33:50;;;;;;;;;;;14.30;72.70;;;;;;5049694;28;20112;-82
2021/10/06 03:36:15;;;;;;;;;;;14.20;73.10;;;;;;5049391;28;19916;-82
2021/10/06 03:38:41;;;;;;;;;;;14.20;72.30;;;;;;5049737;28;19909;-81
2021/10/06 03:41:06;;;;;;;;;;;14.20;72.50;;;;;;5049142;28;19932;-81
2021/10/06 03:43:32;;;;;;;;;;;14.20;72.70;;;;;;5049502;28;19962;-81
2021/10/06 03:45:57;;;;;;;;;;;14.20;72.50;;;;;;5049136;28;20634;-81
2021/10/06 03:48:23;;;;;;;;;;;14.10;72.80;;;;;;5049350;28;20292;-80
2021/10/06 03:50:48;;;;;;;;;;;14.10;72.70;;;;;;5048089;28;20308;-81
2021/10/06 03:53:14;;;;;;;;;;;14.10;72.90;;;;;;5049431;28;19909;-81
2021/10/06 03:55:40;;;;;;;;;;;14.10;72.90;;;;;;5047654;28;19968;-80
2021/10/06 03:58:06;;;;;;;;;;;14.10;73.20;;;;;;5064464;28;20300;-81
2021/10/06 04:00:31;;;;;;;;;;;14.10;73.50;;;;;;5048819;28;19955;-81
2021/10/06 04:02:57;;;;;;;;;;;14.00;73.50;;;;;;5048907;28;20351;-81
2021/10/06 04:05:22;;;;;;;;;;;14.10;73.40;;;;;;5048024;28;19916;-80
2021/10/06 04:07:48;;;;;;;;;;;14.00;73.20;;;;;;5047886;28;19924;-80
2021/10/06 04:10:13;;;;;;;;;;;14.00;73.10;;;;;;5047541;28;19954;-81
2021/10/06 04:12:39;;;;;;;;;;;14.00;73.80;;;;;;5048986;28;20293;-81
2021/10/06 04:15:05;;;;;;;;;;;13.90;74.00;;;;;;5048611;28;20068;-80
2021/10/06 04:17:30;;;;;;;;;;;14.00;74.20;;;;;;5048993;28;19916;-80
2021/10/06 04:19:56;;;;;;;;;;;14.00;74.30;;;;;;5063824;28;20347;-81
2021/10/06 04:22:22;;;;;;;;;;;14.00;74.40;;;;;;5048814;28;19948;-81
2021/10/06 04:24:47;;;;;;;;;;;13.90;74.50;;;;;;5047260;28;20774;-81
2021/10/06 04:27:13;;;;;;;;;;;13.90;74.40;;;;;;5048330;28;19916;-79
2021/10/06 04:29:38;;;;;;;;;;;13.80;74.80;;;;;;5064415;28;20297;-81
2021/10/06 04:32:04;;;;;;;;;;;13.80;74.70;;;;;;5048562;28;19915;-81
2021/10/06 04:34:30;;;;;;;;;;;13.80;74.80;;;;;;5048228;28;20311;-80
2021/10/06 04:36:55;;;;;;;;;;;13.80;74.80;;;;;;5048596;28;20481;-80
2021/10/06 04:39:21;;;;;;;;;;;13.80;74.90;;;;;;5063507;28;19916;-79
2021/10/06 04:41:47;;;;;;;;;;;13.80;74.90;;;;;;5063582;28;19924;-81
2021/10/06 04:44:13;;;;;;;;;;;13.80;74.80;;;;;;5048012;28;20096;-80
2021/10/06 04:46:39;;;;;;;;;;;13.80;75.00;;;;;;5047978;28;19936;-80
2021/10/06 04:49:04;;;;;;;;;;;13.70;74.80;;;;;;5047772;28;19912;-79
2021/10/06 04:51:30;;;;;;;;;;;13.80;74.90;;;;;;5047800;28;19909;-80
2021/10/06 04:53:55;;;;;;;;;;;13.80;74.80;;;;;;5047745;28;19987;-81
2021/10/06 04:56:21;;;;;;;;;;;13.90;74.70;;;;;;5046652;28;20304;-81
2021/10/06 04:58:46;;;;;;;;;;;13.90;75.10;;;;;;5046691;28;19909;-80
2021/10/06 05:01:12;;;;;;;;;;;13.90;75.50;;;;;;5048438;28;19904;-81
2021/10/06 05:03:38;;;;;;;;;;;13.90;75.80;;;;;;5048291;28;20134;-81
2021/10/06 05:06:03;;;;;;;;;;;13.90;76.10;;;;;;5047455;28;20304;-81
2021/10/06 05:08:28;;;;;;;;;;;13.80;76.50;;;;;;5046767;28;19908;-78
2021/10/06 05:10:54;;;;;;;;;;;13.80;76.80;;;;;;5046924;28;19931;-78
2021/10/06 05:13:20;;;;;;;;;;;13.80;77.10;;;;;;5062772;28;19912;-79
2021/10/06 05:15:45;;;;;;;;;;;13.80;77.60;;;;;;5045333;28;19939;-79
2021/10/06 05:18:11;;;;;;;;;;;13.80;78.00;;;;;;5047019;28;19911;-79
2021/10/06 05:20:36;;;;;;;;;;;13.90;77.90;;;;;;5062593;28;19915;-79
2021/10/06 05:23:02;;;;;;;;;;;13.90;78.20;;;;;;5045779;28;19908;-80
2021/10/06 05:25:27;;;;;;;;;;;13.90;78.20;;;;;;5046071;28;20008;-80
2021/10/06 05:27:53;;;;;;;;;;;13.90;77.80;;;;;;5047164;28;20274;-82
2021/10/06 05:30:19;;;;;;;;;;;13.90;78.30;;;;;;5062970;28;19909;-81
2021/10/06 05:32:49;;;;;;;;;;;13.90;78.40;;;;;;5046909;28;19909;-81
2021/10/06 05:35:15;;;;;;;;;;;14.00;78.60;;;;;;5047018;28;19982;-81
2021/10/06 05:37:41;;;;;;;;;;;14.00;78.60;;;;;;5047098;28;19913;-81
2021/10/06 05:40:07;;;;;;;;;;;14.10;78.60;;;;;;5045056;28;19922;-80
2021/10/06 05:42:32;;;;;;;;;;;14.00;78.80;;;;;;5046628;28;19948;-81
2021/10/06 05:44:58;;;;;;;;;;;14.10;78.40;;;;;;5047371;28;20345;-81
2021/10/06 05:47:23;;;;;;;;;;;14.00;79.60;;;;;;5045695;28;19913;-80
2021/10/06 05:49:50;;;;;;;;;;;14.10;78.70;;;;;;5061795;28;19912;-80
2021/10/06 05:52:15;;;;;;;;;;;14.10;79.20;;;;;;5046695;28;19915;-81
2021/10/06 05:54:41;;;;;;;;;;;14.10;78.80;;;;;;5045102;28;19912;-80
2021/10/06 05:57:06;;;;;;;;;;;14.00;78.10;;;;;;5046459;28;19956;-80
2021/10/06 05:59:32;;;;;;;;;;;14.00;78.20;;;;;;5045703;28;19909;-78
2021/10/06 06:01:58;;;;;;;;;;;14.00;78.90;;;;;;5045430;28;19909;-78
2021/10/06 06:04:25;;;;;;;;;;;14.10;78.30;;;;;;5047124;28;20296;-77
2021/10/06 06:06:50;;;;;;;;;;;14.10;78.60;;;;;;5045058;28;19908;-78
2021/10/06 06:09:20;;;;;;;;;;;14.10;78.60;;;;;;5047027;28;19955;-78
2021/10/06 06:11:46;;;;;;;;;;;14.00;79.30;;;;;;5046609;28;19915;-77
2021/10/06 06:14:12;;;;;;;;;;;14.00;79.30;;;;;;5046302;28;20003;-78
2021/10/06 06:16:37;;;;;;;;;;;14.00;79.20;;;;;;5045488;28;20349;-77
2021/10/06 06:19:03;;;;;;;;;;;14.00;79.40;;;;;;5062587;28;19916;-77
2021/10/06 06:21:28;;;;;;;;;;;14.10;79.60;;;;;;5062375;28;19920;-78
2021/10/06 06:23:54;;;;;;;;;;;14.00;80.10;;;;;;5061938;28;19908;-77
2021/10/06 06:26:19;;;;;;;;;;;14.00;80.10;;;;;;5046524;28;19909;-78
2021/10/06 06:28:45;;;;;;;;;;;14.20;79.80;;;;;;5050422;28;20002;-79
2021/10/06 06:31:10;;;;;;;;;;;14.20;79.10;;;;;;5050877;28;19913;-79
2021/10/06 06:33:36;;;;;;;;;;;14.20;79.00;;;;;;5066049;28;19911;-79
2021/10/06 06:36:04;;;;;;;;;;;14.20;78.60;;;;;;5048902;28;20014;-79
2021/10/06 06:38:29;;;;;;;;;;;14.30;78.80;;;;;;5066181;28;20376;-79
2021/10/06 06:40:55;;;;;;;;;;;14.30;78.90;;;;;;5065793;28;19967;-78
2021/10/06 06:43:21;;;;;;;;;;;14.20;78.80;;;;;;5065950;28;19968;-77
2021/10/06 06:45:46;;;;;;;;;;;14.20;79.00;;;;;;5050427;28;19908;-80
2021/10/06 06:48:12;;;;;;;;;;;14.30;78.90;;;;;;5065497;28;19904;-80
2021/10/06 06:50:38;;;;;;;;;;;14.30;79.10;;;;;;5049970;28;19909;-81
2021/10/06 06:53:03;;;;;;;;;;;14.40;78.60;;;;;;5049853;28;19974;-81
2021/10/06 06:55:29;;;;;;;;;;;14.40;78.10;;;;;;5048331;28;19921;-80
2021/10/06 06:57:54;;;;;;;;;;;14.50;78.20;;;;;;5049201;28;20015;-80
2021/10/06 07:00:20;;;;;;;;;;;14.50;77.80;;;;;;5065593;28;19908;-81
2021/10/06 07:02:46;;;;;;;;;;;14.50;77.30;;;;;;5065614;28;19962;-79
2021/10/06 07:05:11;;;;;;;;;;;14.50;77.20;;;;;;5049849;28;20361;-78
2021/10/06 07:07:37;;;;;;;;;;;14.40;77.20;;;;;;5049758;28;19916;-79
2021/10/06 07:10:03;;;;;;;;;;;14.40;77.00;;;;;;5048687;28;20420;-79
2021/10/06 07:12:28;;;;;;;;;;;14.50;77.00;;;;;;5065775;28;19935;-78
2021/10/06 07:14:54;;;;;;;;;;;14.40;77.00;;;;;;5049800;28;19909;-77
2021/10/06 07:17:20;;;;;;;;;;;14.50;76.70;;;;;;5048812;28;19951;-79
2021/10/06 07:19:49;;;;;;;;;;;14.70;75.70;;;;;;5049952;28;19924;-78
2021/10/06 07:22:15;;;;;;;;;;;14.70;75.40;;;;;;5048347;28;19931;-78
2021/10/06 07:24:41;;;;;;;;;;;14.60;75.50;;;;;;5049798;28;19905;-78
2021/10/06 07:27:07;;;;;;;;;;;14.50;76.30;;;;;;5049862;28;19916;-77
2021/10/06 07:29:33;;;;;;;;;;;14.50;76.40;;;;;;5049466;28;19908;-78
2021/10/06 07:31:58;;;;;;;;;;;14.60;76.50;;;;;;5049841;28;19931;-79
2021/10/06 07:34:24;;;;;;;;;;;14.60;75.60;;;;;;5065496;28;19931;-78
2021/10/06 07:36:50;;;;;;;;;;;14.60;75.60;;;;;;5049385;28;19920;-78
2021/10/06 07:39:15;;;;;;;;;;;14.60;76.10;;;;;;5049400;28;20292;-78
2021/10/06 07:41:41;;;;;;;;;;;14.50;76.80;;;;;;5064717;28;19916;-77
2021/10/06 07:44:07;;;;;;;;;;;14.40;77.40;;;;;;5049753;28;20442;-78
2021/10/06 07:46:32;;;;;;;;;;;14.30;80.30;;;;;;5048042;28;19915;-79
2021/10/06 07:48:58;;;;;;;;;;;14.20;81.40;;;;;;5048141;28;19909;-78
2021/10/06 07:51:23;;;;;;;;;;;14.10;83.60;;;;;;5049436;28;19909;-79
2021/10/06 07:53:49;;;;;;;;;;;13.90;83.40;;;;;;5048346;28;19931;-80
2021/10/06 07:56:15;;;;;;;;;;;13.80;84.00;;;;;;5064558;28;20400;-79
2021/10/06 07:58:41;;;;;;;;;;;13.80;85.10;;;;;;5048111;28;20369;-79
2021/10/06 08:01:07;;;;;;;;;;;13.70;86.40;;;;;;5064958;28;19909;-80
2021/10/06 08:03:33;;;;;;;;;;;13.50;88.60;;;;;;5049363;28;20343;-79
2021/10/06 08:05:58;;;;;;;;;;;13.40;89.60;;;;;;5063876;28;19966;-79
2021/10/06 08:08:26;;;;;;;;;;;13.40;90.10;;;;;;5064028;28;19909;-79
2021/10/06 08:10:53;;;;;;;;;;;13.30;91.40;;;;;;5049440;28;19914;-80
2021/10/06 08:13:19;;;;;;;;;;;13.20;92.20;;;;;;5048780;28;20041;-78
2021/10/06 08:15:44;;;;;;;;;;;13.20;92.20;;;;;;5048051;28;20008;-80
2021/10/06 08:18:09;;;;;;;;;;;13.10;92.70;;;;;;5049009;28;19939;-78
2021/10/06 08:20:35;;;;;;;;;;;13.10;93.70;;;;;;5048772;28;19908;-79
2021/10/06 08:23:01;;;;;;;;;;;13.00;94.70;;;;;;5048898;28;19909;-79
2021/10/06 08:25:27;;;;;;;;;;;13.00;94.80;;;;;;5064135;28;19905;-79
2021/10/06 08:27:54;;;;;;;;;;;13.00;96.80;;;;;;5049244;28;19914;-79
2021/10/06 08:30:20;;;;;;;;;;;13.00;97.80;;;;;;5048598;28;19909;-79
2021/10/06 08:32:45;;;;;;;;;;;13.00;98.20;;;;;;5047532;28;19915;-79
2021/10/06 08:35:11;;;;;;;;;;;13.00;98.50;;;;;;5049164;28;19904;-80
2021/10/06 08:37:37;;;;;;;;;;;13.00;99.30;;;;;;5048930;28;19978;-80
2021/10/06 08:40:03;;;;;;;;;;;12.90;99.40;;;;;;5048058;28;19909;-81
2021/10/06 08:42:30;;;;;;;;;;;12.90;99.90;;;;;;5048680;28;19919;-82
2021/10/06 08:44:56;;;;;;;;;;;12.90;99.90;;;;;;5048343;28;19991;-80
2021/10/06 08:47:21;;;;;;;;;;;12.80;98.20;;;;;;5064013;28;20003;-79
2021/10/06 08:49:47;;;;;;;;;;;12.80;99.90;;;;;;5047658;28;19984;-79
2021/10/06 08:54:04;;;;;;;16.67;6.90;;;12.70;97.90;;;;;;5083607;28;20413;-80
2021/10/06 08:56:29;;;;;;;;;;;12.70;98.10;;;;;;5083473;28;20075;-80
2021/10/06 08:58:55;;;;;;;13.05;7.22;;;12.70;99.10;;;;;;5082189;28;20292;-79
2021/10/06 09:01:22;;;;;;;;;;;12.70;99.50;;;;;;5083117;28;20036;-79
2021/10/06 09:03:57;;;;;;;11.88;7.00;;;12.70;98.00;;;;;;5084004;28;19904;-78
2021/10/06 09:06:32;;;;;;;11.20;5.80;;;12.70;98.30;;;;;;5081891;28;20566;-78
2021/10/06 09:08:58;;;;;;;12.23;7.40;;;12.80;98.70;;;;;;5083235;28;20114;-81
2021/10/06 09:11:30;;;;;;;;;;;12.90;98.90;;;;;;5084242;28;20180;-79
2021/10/06 09:13:56;;;;;;;13.63;7.32;;;13.00;98.70;;;;;;5083630;28;20018;-80
2021/10/06 09:16:23;;;;;;;;;;;13.00;98.50;;;;;;5083914;28;20540;-81
2021/10/06 09:18:49;;;;;;;11.05;6.25;;;13.00;99.40;;;;;;5082115;28;19904;-79
2021/10/06 09:21:14;;;;;;;;;;;12.90;98.20;;;;;;5082518;28;20044;-81
2021/10/06 09:23:42;;;;;;;17.25;5.65;;;12.90;99.50;;;;;;5081736;28;19950;-80
2021/10/06 09:26:10;;;;;;;12.90;6.45;;;12.90;98.80;;;;;;5083321;28;20044;-81
2021/10/06 09:28:42;;;;;;;15.57;7.00;;;12.80;98.80;;;;;;5083508;28;20047;-79
2021/10/06 09:31:25;;;;;;;12.32;7.20;;;12.70;99.50;;;;;;5083365;28;20029;-81
2021/10/06 09:33:52;;;;;;;12.13;6.45;;;12.60;99.90;;;;;;5082093;28;20040;-81
2021/10/06 09:36:30;;;;;;;18.50;10.10;;;12.60;99.90;;;;;;5081144;28;20065;-80
2021/10/06 09:38:57;;;;;;;14.98;9.63;;;12.40;99.90;;;;;;5082737;28;20340;-79
2021/10/06 09:41:38;;;;;;;14.55;7.43;;;12.40;99.90;;;;;;5081534;28;20028;-81
2021/10/06 09:44:17;;;;;;;24.00;12.65;;;12.40;99.90;;;;;;5082516;28;20523;-80
2021/10/06 09:46:50;;;;;;;16.08;8.00;;;12.40;99.90;;;;;;5083050;28;20052;-82
2021/10/06 09:49:28;;;;;;;29.77;8.30;;;12.40;99.90;;;;;;5081269;28;20040;-82
2021/10/06 09:52:16;;;;;;;16.90;7.65;;;12.40;99.90;;;;;;5081884;28;20028;-80
2021/10/06 09:54:52;;;;;;;15.27;7.65;;;12.40;99.90;;;;;;5082060;28;20043;-81
2021/10/06 09:57:50;;;;;;;12.07;6.35;;;12.40;99.90;;;;;;5081250;28;20032;-81
2021/10/06 10:00:18;;;;;;;12.93;7.82;;;12.40;99.90;;;;;;5079931;28;20040;-81
2021/10/06 10:02:45;;;;;;;9.80;7.18;;;12.40;99.90;;;;;;5080761;28;20077;-78
2021/10/06 10:05:12;;;;;;;11.85;8.48;;;12.30;99.90;;;;;;5069839;28;20374;-80
2021/10/06 10:07:38;;;;;;;17.77;8.13;;;12.30;99.90;;;;;;5067869;28;20038;-81
2021/10/06 10:10:06;;;;;;;18.17;7.25;;;12.20;99.90;;;;;;5066697;28;20103;-80
2021/10/06 10:12:32;;;;;;;18.27;7.70;;;12.30;99.90;;;;;;5067688;28;20032;-79
2021/10/06 10:14:58;;;;;;;19.90;7.00;;;12.30;99.90;;;;;;5066914;28;20523;-79
2021/10/06 10:17:24;;;;;;;;;;;12.40;99.90;;;;;;5068958;28;20069;-80
2021/10/06 10:20:01;;;;;;;14.80;6.55;;;12.30;99.90;;;;;;5068813;28;19954;-80
2021/10/06 10:22:32;;;;;;;20.20;7.70;;;12.30;99.90;;;;;;5067277;28;20020;-80
2021/10/06 10:25:13;;;;;;;16.27;9.50;;;12.40;99.90;;;;;;5068364;28;20020;-78
2021/10/06 10:27:57;;;;;;;14.90;8.25;;;12.40;99.90;;;;;;5066732;28;20495;-79
2021/10/06 10:30:23;;;;;;;10.20;7.22;;;12.40;99.90;;;;;;5068597;28;20079;-81
2021/10/06 10:32:48;;;;;;;;;;;12.40;99.90;;;;;;5067200;28;20036;-80
2021/10/06 10:35:17;;;;;;;19.33;8.10;;;12.40;99.90;;;;;;5067973;28;19905;-79
2021/10/06 10:37:49;;;;;;;16.33;6.85;;;12.50;99.90;;;;;;5068088;28;20037;-80
2021/10/06 10:40:33;;;;;;;12.32;6.85;;;12.40;99.90;;;;;;5068570;28;20478;-80
2021/10/06 10:43:09;;;;;;;10.88;7.22;;;12.40;99.90;;;;;;5067214;28;20052;-81
2021/10/06 10:45:58;;;;;;;14.40;6.80;;;12.50;99.90;;;;;;5066697;28;20082;-79
2021/10/06 10:48:26;;;;;;;17.67;6.88;;;12.40;99.90;;;;;;5053011;28;20044;-78
2021/10/06 10:50:52;;;;;;;16.98;7.30;;;12.40;99.90;;;;;;5068241;28;20028;-80
2021/10/06 10:53:18;;;;;;;;;;;12.40;99.90;;;;;;5066654;28;20421;-79
2021/10/06 10:56:03;;;;;;;18.80;8.35;;;12.40;99.90;;;;;;5066743;28;19908;-81
2021/10/06 10:58:41;;;;;;;17.30;10.50;;;12.40;99.90;;;;;;5068307;28;20024;-79
2021/10/06 11:01:12;;;;;;;16.55;9.30;;;12.40;99.90;;;;;;5066530;28;20043;-78
2021/10/06 11:04:06;;;;;;;16.27;9.55;;;12.50;99.90;;;;;;5067448;28;20025;-78
2021/10/06 11:06:37;;;;;;;20.98;8.30;;;12.50;99.90;;;;;;5066192;28;20032;-80
2021/10/06 11:09:43;;;;;;;21.75;8.23;;;12.50;99.90;;;;;;5067530;28;20017;-79
2021/10/06 11:12:11;;;;;;;16.55;7.15;;;12.50;99.90;;;;;;5064419;28;20124;-79
2021/10/06 11:14:40;;;;;;;13.98;7.47;;;12.50;99.90;;;;;;5067022;28;20036;-78
2021/10/06 11:17:08;;;;;;;22.27;7.88;;;12.40;99.90;;;;;;5065411;28;20064;-78
2021/10/06 11:19:40;;;;;;;26.73;8.48;;;12.40;99.90;;;;;;5065200;28;20039;-79
2021/10/06 11:22:24;;;;;;;18.58;8.05;;;12.40;99.90;;;;;;5065250;28;20786;-79
2021/10/06 11:25:07;;;;;;;17.45;7.55;;;12.40;99.90;;;;;;5066327;28;20112;-80
2021/10/06 11:27:50;;;;;;;22.35;13.15;;;12.40;99.90;;;;;;5066441;28;20032;-78
2021/10/06 11:30:19;;;;;;;20.63;11.82;;;12.30;99.90;;;;;;5066446;28;20028;-79
2021/10/06 11:32:50;;;;;;;22.10;9.93;;;12.30;99.90;;;;;;5066549;28;20040;-77
2021/10/06 11:35:16;;;;;;;17.98;9.02;;;12.30;99.90;;;;;;5066193;28;20036;-79
2021/10/06 11:37:42;;;;;;;22.88;11.18;;;12.30;99.90;;;;;;5064744;28;20115;-80
2021/10/06 11:40:17;;;;;;;;;;;12.20;99.90;;;;;;5064922;28;20082;-79
2021/10/06 11:42:43;;;;;;;18.85;11.52;;;12.20;99.90;;;;;;5065174;28;19985;-80
2021/10/06 11:45:18;;;;;;;21.08;9.23;;;12.10;99.90;;;;;;5065731;28;20029;-79
2021/10/06 11:47:44;;;;;;;22.45;7.93;;;12.20;99.90;;;;;;5066855;28;20366;-79
2021/10/06 11:50:09;;;;;;;;;;;12.10;99.90;;;;;;5064799;28;20512;-78
2021/10/06 11:52:35;;;;;;;68.15;28.08;;;12.10;99.90;;;;;;5061881;28;20020;-79
2021/10/06 11:55:00;;;;;;;;;;;12.10;99.90;;;;;;5063166;28;20387;-79
2021/10/06 11:57:27;;;;;;;26.05;11.68;;;12.10;99.90;;;;;;5060114;28;20010;-78
2021/10/06 11:59:52;;;;;;;19.13;10.43;;;12.20;99.90;;;;;;5062830;28;20037;-78
2021/10/06 12:02:20;;;;;;;;;;;12.10;99.90;;;;;;5064972;28;20047;-78
2021/10/06 12:04:48;;;;;;;21.55;8.77;;;12.00;99.90;;;;;;5064576;28;20015;-79
2021/10/06 12:07:19;;;;;;;15.88;8.52;;;12.00;99.90;;;;;;5065221;28;20500;-78
2021/10/06 12:09:50;;;;;;;18.10;8.60;;;12.00;99.90;;;;;;5065840;28;20041;-78
2021/10/06 12:12:31;;;;;;;17.92;9.02;;;12.00;99.90;;;;;;5060471;28;20123;-78
2021/10/06 12:15:12;;;;;;;17.42;7.47;;;12.00;99.90;;;;;;5063188;28;20072;-79
2021/10/06 12:17:39;;;;;;;18.88;8.10;;;11.90;99.90;;;;;;5063526;28;20082;-78
2021/10/06 12:20:13;;;;;;;16.52;7.47;;;11.80;99.90;;;;;;5065323;28;20101;-77
2021/10/06 12:22:39;;;;;;;29.10;15.25;;;11.90;99.90;;;;;;5061307;28;20033;-77
2021/10/06 12:25:14;;;;;;;16.08;7.85;;;11.80;99.90;;;;;;5059253;28;20493;-77
2021/10/06 12:28:06;;;;;;;16.80;8.00;;;11.80;99.90;;;;;;5063823;28;20398;-77
2021/10/06 12:30:33;;;;;;;14.63;6.70;;;11.80;99.90;;;;;;5064057;28;20032;-78
2021/10/06 12:33:03;;;;;;;10.27;7.55;;;11.80;99.90;;;;;;5061113;28;20075;-77
2021/10/06 12:35:41;;;;;;;16.88;7.43;;;11.70;99.90;;;;;;5061516;28;20043;-77
2021/10/06 12:38:07;;;;;;;11.82;7.57;;;11.60;99.90;;;;;;5063108;28;20044;-78
2021/10/06 12:40:33;;;;;;;;;;;11.70;99.90;;;;;;5062480;28;20048;-78
2021/10/06 12:43:12;;;;;;;17.95;8.65;;;11.70;99.90;;;;;;5063316;28;20495;-78
2021/10/06 12:46:07;;;;;;;15.52;8.40;;;11.60;99.90;;;;;;5060188;28;20825;-77
2021/10/06 12:48:41;;;;;;;13.15;8.55;;;11.70;99.90;;;;;;5064060;28;20036;-77
2021/10/06 12:51:09;;;;;;;17.13;8.63;;;11.70;99.90;;;;;;5062386;28;20044;-77
2021/10/06 12:53:35;;;;;;;13.90;7.72;;;11.80;99.90;;;;;;5063288;28;20203;-77
2021/10/06 12:56:00;;;;;;;;;;;11.80;99.90;;;;;;5062687;28;20044;-78
2021/10/06 12:58:26;;;;;;;24.42;9.80;;;11.80;99.90;;;;;;5063206;28;19965;-78
2021/10/06 13:00:52;;;;;;;;;;;11.80;99.90;;;;;;5064098;28;20029;-78
2021/10/06 13:03:18;;;;;;;22.58;9.10;;;11.80;99.90;;;;;;5065360;28;19921;-77
2021/10/06 13:05:44;;;;;;;;;;;11.80;99.90;;;;;;5064494;28;20516;-76
2021/10/06 13:08:14;;;;;;;14.70;7.53;;;11.90;99.90;;;;;;5060387;28;19920;-77
2021/10/06 13:10:40;;;;;;;16.55;10.35;;;11.90;99.90;;;;;;5065980;28;20362;-78
2021/10/06 13:13:06;;;;;;;;;;;11.80;99.90;;;;;;5064620;28;20571;-78
2021/10/06 13:15:31;;;;;;;18.38;11.43;;;11.80;99.90;;;;;;5065113;28;19921;-77
2021/10/06 13:17:57;;;;;;;;;;;11.80;99.90;;;;;;5056434;28;20045;-79
2021/10/06 13:20:22;;;;;;;16.52;8.98;;;11.80;99.90;;;;;;5062297;28;20723;-78
2021/10/06 13:22:48;;;;;;;;;;;11.80;99.90;;;;;;5065260;28;20052;-77
2021/10/06 13:25:13;;;;;;;20.45;13.68;;;11.70;99.90;;;;;;5062445;28;20274;-77
2021/10/06 13:27:39;;;;;;;;;;;11.70;99.90;;;;;;5064272;28;20029;-78
2021/10/06 13:30:05;;;;;;;23.15;11.73;;;11.70;99.90;;;;;;5063771;28;19923;-78
2021/10/06 13:32:31;;;;;;;14.38;9.32;;;11.60;99.90;;;;;;5062158;28;20568;-79
2021/10/06 13:34:56;;;;;;;;;;;11.60;99.90;;;;;;5060555;28;20154;-79
2021/10/06 13:37:22;;;;;;;18.17;10.60;;;11.70;99.90;;;;;;5064917;28;19921;-78
2021/10/06 13:39:47;;;;;;;;;;;11.70;99.90;;;;;;5066885;28;20071;-79
2021/10/06 13:42:13;;;;;;;15.13;11.55;;;11.70;99.90;;;;;;5067515;28;19920;-78
2021/10/06 13:44:39;;;;;;;;;;;11.70;99.90;;;;;;5060911;28;20036;-79
2021/10/06 13:47:05;;;;;;;14.80;9.32;;;11.70;99.90;;;;;;5067731;28;19928;-78
2021/10/06 13:49:31;;;;;;;;;;;11.80;99.90;;;;;;5068630;28;20041;-78